sensor_id;sensor_type;location;lat;lon;timestamp;pressure;altitude;pressure_sealevel;temperature;humidity
53758;BME280;39674;59.860;30.672;2022-08-14T00:02:02;101967.09;;;13.90;92.23
53758;BME280;39674;59.860;30.672;2022-08-14T00:05:01;101965.66;;;13.83;91.71
53758;BME280;39674;59.860;30.672;2022-08-14T00:08:38;101847.69;;;13.09;91.58
53758;BME280;39674;59.860;30.672;2022-08-14T00:12:05;101847.56;;;13.12;91.51
53758;BME280;39674;59.860;30.672;2022-08-14T00:18:18;101853.44;;;12.98;91.57
53758;BME280;39674;59.860;30.672;2022-08-14T00:24:57;101943.66;;;13.60;91.73
53758;BME280;39674;59.860;30.672;2022-08-14T00:28:31;101892.69;;;13.31;91.87
53758;BME280;39674;59.860;30.672;2022-08-14T00:31:36;101906.84;;;13.32;92.10
53758;BME280;39674;59.860;30.672;2022-08-14T00:34:24;101849.38;;;12.91;91.92
53758;BME280;39674;59.860;30.672;2022-08-14T00:41:14;101825.88;;;12.82;91.68
53758;BME280;39674;59.860;30.672;2022-08-14T00:44:55;101916.72;;;13.28;92.09
53758;BME280;39674;59.860;30.672;2022-08-14T00:48:14;101824.50;;;12.73;91.91
53758;BME280;39674;59.860;30.672;2022-08-14T00:54:07;101872.28;;;12.92;91.62
53758;BME280;39674;59.860;30.672;2022-08-14T00:55:30;101837.69;;;12.75;91.82
53758;BME280;39674;59.860;30.672;2022-08-14T00:58:49;101829.59;;;12.57;92.67
53758;BME280;39674;59.860;30.672;2022-08-14T01:01:48;101877.72;;;12.89;92.41
53758;BME280;39674;59.860;30.672;2022-08-14T01:05:51;101886.22;;;12.97;92.06
53758;BME280;39674;59.860;30.672;2022-08-14T01:08:24;101903.16;;;12.93;92.08
53758;BME280;39674;59.860;30.672;2022-08-14T01:11:17;101938.59;;;13.13;92.16
53758;BME280;39674;59.860;30.672;2022-08-14T01:14:48;101865.06;;;12.53;92.45
53758;BME280;39674;59.860;30.672;2022-08-14T01:18:21;101881.53;;;12.61;91.85
53758;BME280;39674;59.860;30.672;2022-08-14T01:21:17;101872.09;;;12.54;91.77
53758;BME280;39674;59.860;30.672;2022-08-14T01:24:21;101919.28;;;12.89;91.58
53758;BME280;39674;59.860;30.672;2022-08-14T01:27:28;101888.22;;;12.70;91.17
53758;BME280;39674;59.860;30.672;2022-08-14T01:31:00;101877.03;;;12.63;91.22
53758;BME280;39674;59.860;30.672;2022-08-14T01:33:59;101828.00;;;12.31;90.49
53758;BME280;39674;59.860;30.672;2022-08-14T01:37:07;101928.91;;;12.91;91.10
53758;BME280;39674;59.860;30.672;2022-08-14T01:47:39;101872.59;;;12.42;90.14
53758;BME280;39674;59.860;30.672;2022-08-14T01:50:22;101823.72;;;12.06;90.37
53758;BME280;39674;59.860;30.672;2022-08-14T01:53:46;101881.72;;;12.34;90.48
53758;BME280;39674;59.860;30.672;2022-08-14T01:57:26;101820.56;;;11.96;90.69
53758;BME280;39674;59.860;30.672;2022-08-14T02:00:39;101885.94;;;12.18;91.45
53758;BME280;39674;59.860;30.672;2022-08-14T02:03:43;101839.19;;;11.93;91.46
53758;BME280;39674;59.860;30.672;2022-08-14T02:06:39;101953.50;;;12.50;90.77
53758;BME280;39674;59.860;30.672;2022-08-14T02:09:41;101856.25;;;11.86;90.58
53758;BME280;39674;59.860;30.672;2022-08-14T02:12:38;101886.50;;;12.02;91.45
53758;BME280;39674;59.860;30.672;2022-08-14T02:15:17;101911.66;;;12.14;92.51
53758;BME280;39674;59.860;30.672;2022-08-14T02:18:38;101962.84;;;12.39;91.48
53758;BME280;39674;59.860;30.672;2022-08-14T02:22:07;101857.28;;;11.58;92.34
53758;BME280;39674;59.860;30.672;2022-08-14T02:25:08;101842.16;;;11.38;93.66
53758;BME280;39674;59.860;30.672;2022-08-14T02:28:17;101963.75;;;12.14;94.65
53758;BME280;39674;59.860;30.672;2022-08-14T02:31:47;101841.75;;;11.49;93.94
53758;BME280;39674;59.860;30.672;2022-08-14T02:35:00;101829.84;;;11.37;93.43
53758;BME280;39674;59.860;30.672;2022-08-14T02:38:15;101854.81;;;11.53;93.11
53758;BME280;39674;59.860;30.672;2022-08-14T02:40:59;101860.84;;;11.57;92.96
53758;BME280;39674;59.860;30.672;2022-08-14T02:44:02;101955.53;;;12.22;93.09
53758;BME280;39674;59.860;30.672;2022-08-14T02:46:48;101835.06;;;11.38;93.03
53758;BME280;39674;59.860;30.672;2022-08-14T02:49:31;101883.22;;;11.72;93.06
53758;BME280;39674;59.860;30.672;2022-08-14T02:52:50;101884.09;;;11.72;92.81
53758;BME280;39674;59.860;30.672;2022-08-14T02:59:18;101840.13;;;11.21;94.50
53758;BME280;39674;59.860;30.672;2022-08-14T03:06:08;101842.56;;;11.51;95.03
53758;BME280;39674;59.860;30.672;2022-08-14T03:09:16;101829.25;;;11.52;94.83
53758;BME280;39674;59.860;30.672;2022-08-14T03:12:39;101836.19;;;11.56;94.33
53758;BME280;39674;59.860;30.672;2022-08-14T03:16:08;101829.97;;;11.58;94.92
53758;BME280;39674;59.860;30.672;2022-08-14T03:20:15;101876.25;;;11.93;95.58
53758;BME280;39674;59.860;30.672;2022-08-14T03:23:16;101876.25;;;12.17;95.18
53758;BME280;39674;59.860;30.672;2022-08-14T03:26:50;101835.28;;;12.03;95.72
53758;BME280;39674;59.860;30.672;2022-08-14T03:29:59;101833.44;;;12.06;95.42
53758;BME280;39674;59.860;30.672;2022-08-14T03:32:55;101842.56;;;12.20;95.86
53758;BME280;39674;59.860;30.672;2022-08-14T03:36:31;101942.94;;;12.93;95.35
53758;BME280;39674;59.860;30.672;2022-08-14T03:39:15;101829.66;;;12.33;95.87
53758;BME280;39674;59.860;30.672;2022-08-14T03:46:12;101904.44;;;12.84;95.71
53758;BME280;39674;59.860;30.672;2022-08-14T03:52:25;101899.06;;;12.86;94.95
53758;BME280;39674;59.860;30.672;2022-08-14T03:53:03;101943.63;;;13.19;96.76
53758;BME280;39674;59.860;30.672;2022-08-14T03:56:05;101948.81;;;13.22;95.51
53758;BME280;39674;59.860;30.672;2022-08-14T03:59:42;101893.22;;;12.98;94.90
53758;BME280;39674;59.860;30.672;2022-08-14T04:09:34;101901.78;;;13.26;95.30
53758;BME280;39674;59.860;30.672;2022-08-14T04:16:13;101856.78;;;13.24;96.24
53758;BME280;39674;59.860;30.672;2022-08-14T04:18:59;101923.28;;;13.61;96.60
53758;BME280;39674;59.860;30.672;2022-08-14T04:21:49;101914.97;;;13.69;96.64
53758;BME280;39674;59.860;30.672;2022-08-14T04:24:47;101892.28;;;13.61;97.37
53758;BME280;39674;59.860;30.672;2022-08-14T04:27:57;101957.44;;;14.27;98.34
53758;BME280;39674;59.860;30.672;2022-08-14T04:30:46;101854.41;;;13.77;97.94
53758;BME280;39674;59.860;30.672;2022-08-14T04:33:58;101925.44;;;14.48;98.35
53758;BME280;39674;59.860;30.672;2022-08-14T04:37:35;101853.31;;;14.19;99.71
53758;BME280;39674;59.860;30.672;2022-08-14T04:41:03;101871.25;;;14.51;98.45
53758;BME280;39674;59.860;30.672;2022-08-14T04:46:49;101921.81;;;15.38;98.86
53758;BME280;39674;59.860;30.672;2022-08-14T04:53:58;101898.63;;;15.92;97.71
53758;BME280;39674;59.860;30.672;2022-08-14T05:00:35;101950.28;;;16.83;95.00
53758;BME280;39674;59.860;30.672;2022-08-14T05:05:46;101841.66;;;16.41;94.47
53758;BME280;39674;59.860;30.672;2022-08-14T05:20:23;101938.75;;;18.71;88.53
53758;BME280;39674;59.860;30.672;2022-08-14T05:23:49;101916.63;;;18.82;87.00
53758;BME280;39674;59.860;30.672;2022-08-14T05:31:28;101941.56;;;19.74;86.69
53758;BME280;39674;59.860;30.672;2022-08-14T05:34:35;101905.44;;;19.80;82.12
53758;BME280;39674;59.860;30.672;2022-08-14T05:45:11;101834.16;;;19.64;81.28
53758;BME280;39674;59.860;30.672;2022-08-14T05:59:55;101876.63;;;21.39;74.68
53758;BME280;39674;59.860;30.672;2022-08-14T06:11:51;101850.50;;;22.51;67.26
53758;BME280;39674;59.860;30.672;2022-08-14T06:15:07;101888.44;;;23.02;67.07
53758;BME280;39674;59.860;30.672;2022-08-14T06:18:18;101830.63;;;22.64;62.51
53758;BME280;39674;59.860;30.672;2022-08-14T06:21:25;101897.41;;;23.12;63.46
53758;BME280;39674;59.860;30.672;2022-08-14T06:24:26;101882.22;;;23.11;60.74
53758;BME280;39674;59.860;30.672;2022-08-14T06:30:52;101942.56;;;24.03;60.95
53758;BME280;39674;59.860;30.672;2022-08-14T06:38:12;101898.63;;;23.81;59.97
53758;BME280;39674;59.860;30.672;2022-08-14T06:41:18;101894.91;;;24.23;58.90
53758;BME280;39674;59.860;30.672;2022-08-14T06:43:57;101896.47;;;24.65;56.31
53758;BME280;39674;59.860;30.672;2022-08-14T06:52:15;101833.38;;;24.76;56.29
53758;BME280;39674;59.860;30.672;2022-08-14T06:55:53;101923.94;;;25.57;55.10
53758;BME280;39674;59.860;30.672;2022-08-14T06:58:50;101928.56;;;25.74;54.00
53758;BME280;39674;59.860;30.672;2022-08-14T07:03:55;101846.09;;;25.51;54.99
53758;BME280;39674;59.860;30.672;2022-08-14T07:06:29;101831.00;;;25.48;53.43
53758;BME280;39674;59.860;30.672;2022-08-14T07:09:46;101843.72;;;25.66;50.80
53758;BME280;39674;59.860;30.672;2022-08-14T07:13:18;101840.69;;;25.51;50.60
53758;BME280;39674;59.860;30.672;2022-08-14T07:20:28;101836.09;;;25.97;51.54
53758;BME280;39674;59.860;30.672;2022-08-14T07:24:28;101833.13;;;25.72;50.89
53758;BME280;39674;59.860;30.672;2022-08-14T07:43:03;101931.88;;;25.96;48.15
53758;BME280;39674;59.860;30.672;2022-08-14T07:47:03;101825.47;;;25.50;46.94
53758;BME280;39674;59.860;30.672;2022-08-14T07:50:35;101861.06;;;25.35;47.13
53758;BME280;39674;59.860;30.672;2022-08-14T07:53:41;101862.06;;;25.34;50.23
53758;BME280;39674;59.860;30.672;2022-08-14T07:56:17;101829.75;;;25.70;50.72
53758;BME280;39674;59.860;30.672;2022-08-14T08:02:15;101914.91;;;27.20;48.60
53758;BME280;39674;59.860;30.672;2022-08-14T08:04:51;101890.34;;;27.22;47.95
53758;BME280;39674;59.860;30.672;2022-08-14T08:07:24;101864.06;;;27.49;48.84
53758;BME280;39674;59.860;30.672;2022-08-14T08:21:23;101827.94;;;26.25;47.39
53758;BME280;39674;59.860;30.672;2022-08-14T08:24:00;101837.78;;;26.70;47.74
53758;BME280;39674;59.860;30.672;2022-08-14T08:28:28;101865.16;;;26.41;50.37
53758;BME280;39674;59.860;30.672;2022-08-14T08:52:04;101800.81;;;26.61;48.21
53758;BME280;39674;59.860;30.672;2022-08-14T08:55:22;101911.56;;;28.04;49.47
53758;BME280;39674;59.860;30.672;2022-08-14T09:09:52;101869.75;;;28.81;46.77
53758;BME280;39674;59.860;30.672;2022-08-14T09:26:58;101792.66;;;28.08;47.24
53758;BME280;39674;59.860;30.672;2022-08-14T09:30:03;101851.53;;;29.06;46.31
53758;BME280;39674;59.860;30.672;2022-08-14T09:33:22;101797.63;;;29.10;44.22
53758;BME280;39674;59.860;30.672;2022-08-14T09:40:41;101850.88;;;28.63;46.84
53758;BME280;39674;59.860;30.672;2022-08-14T09:50:30;101885.41;;;28.71;45.59
53758;BME280;39674;59.860;30.672;2022-08-14T10:10:53;101833.75;;;29.35;42.54
53758;BME280;39674;59.860;30.672;2022-08-14T10:57:18;101841.19;;;28.85;42.02
53758;BME280;39674;59.860;30.672;2022-08-14T11:00:11;101879.31;;;29.41;42.45
53758;BME280;39674;59.860;30.672;2022-08-14T11:03:37;101876.13;;;29.29;40.63
53758;BME280;39674;59.860;30.672;2022-08-14T11:17:30;101869.72;;;28.97;40.45
53758;BME280;39674;59.860;30.672;2022-08-14T11:20:38;101807.56;;;28.53;42.45
53758;BME280;39674;59.860;30.672;2022-08-14T11:23:16;101832.03;;;28.61;40.10
53758;BME280;39674;59.860;30.672;2022-08-14T11:26:15;101768.13;;;28.65;42.04
53758;BME280;39674;59.860;30.672;2022-08-14T11:40:19;101865.63;;;29.02;41.98
53758;BME280;39674;59.860;30.672;2022-08-14T11:42:52;101822.16;;;28.85;40.74
53758;BME280;39674;59.860;30.672;2022-08-14T11:49:02;101822.75;;;29.20;41.69
53758;BME280;39674;59.860;30.672;2022-08-14T11:53:04;101862.22;;;29.16;41.92
53758;BME280;39674;59.860;30.672;2022-08-14T12:00:07;101861.91;;;28.53;42.72
53758;BME280;39674;59.860;30.672;2022-08-14T12:02:50;101778.69;;;27.94;43.97
53758;BME280;39674;59.860;30.672;2022-08-14T12:05:39;101820.16;;;28.29;43.47
53758;BME280;39674;59.860;30.672;2022-08-14T12:08:15;101819.78;;;28.08;43.86
53758;BME280;39674;59.860;30.672;2022-08-14T12:21:21;101820.34;;;26.91;45.12
53758;BME280;39674;59.860;30.672;2022-08-14T12:24:49;101811.97;;;26.58;46.59
53758;BME280;39674;59.860;30.672;2022-08-14T12:43:05;101836.50;;;25.84;50.22
53758;BME280;39674;59.860;30.672;2022-08-14T12:49:56;101725.72;;;25.09;50.93
53758;BME280;39674;59.860;30.672;2022-08-14T13:00:13;101797.84;;;25.08;50.72
53758;BME280;39674;59.860;30.672;2022-08-14T13:03:39;101802.31;;;24.99;51.07
53758;BME280;39674;59.860;30.672;2022-08-14T13:06:52;101736.28;;;24.55;51.28
53758;BME280;39674;59.860;30.672;2022-08-14T13:09:26;101786.53;;;24.95;51.34
53758;BME280;39674;59.860;30.672;2022-08-14T13:12:23;101722.63;;;24.76;51.43
53758;BME280;39674;59.860;30.672;2022-08-14T13:19:13;101744.28;;;24.94;51.46
53758;BME280;39674;59.860;30.672;2022-08-14T13:22:34;101786.25;;;24.98;50.91
53758;BME280;39674;59.860;30.672;2022-08-14T13:40:02;101761.09;;;24.30;52.85
53758;BME280;39674;59.860;30.672;2022-08-14T13:43:07;101815.59;;;24.73;52.19
53758;BME280;39674;59.860;30.672;2022-08-14T13:46:21;101692.03;;;23.79;52.84
53758;BME280;39674;59.860;30.672;2022-08-14T13:49:42;101749.44;;;24.10;51.64
53758;BME280;39674;59.860;30.672;2022-08-14T13:52:25;101706.38;;;23.79;52.60
53758;BME280;39674;59.860;30.672;2022-08-14T13:55:38;101703.38;;;23.63;52.36
53758;BME280;39674;59.860;30.672;2022-08-14T14:02:51;101796.28;;;24.29;52.77
53758;BME280;39674;59.860;30.672;2022-08-14T14:08:44;101699.72;;;23.83;53.89
53758;BME280;39674;59.860;30.672;2022-08-14T14:19:07;101697.44;;;23.69;53.08
53758;BME280;39674;59.860;30.672;2022-08-14T14:24:47;101723.28;;;23.81;53.36
53758;BME280;39674;59.860;30.672;2022-08-14T14:26:29;101677.84;;;23.47;52.81
53758;BME280;39674;59.860;30.672;2022-08-14T14:29:40;101780.81;;;24.11;52.72
53758;BME280;39674;59.860;30.672;2022-08-14T14:32:59;101744.59;;;23.94;53.11
53758;BME280;39674;59.860;30.672;2022-08-14T14:35:33;101728.97;;;23.78;52.52
53758;BME280;39674;59.860;30.672;2022-08-14T14:38:37;101708.09;;;23.61;53.91
53758;BME280;39674;59.860;30.672;2022-08-14T14:41:29;101669.84;;;23.16;54.19
53758;BME280;39674;59.860;30.672;2022-08-14T14:45:16;101776.22;;;23.82;53.45
53758;BME280;39674;59.860;30.672;2022-08-14T14:48:06;101682.72;;;23.13;53.76
53758;BME280;39674;59.860;30.672;2022-08-14T14:50:37;101714.13;;;23.33;53.60
53758;BME280;39674;59.860;30.672;2022-08-14T14:53:33;101735.16;;;23.49;53.11
53758;BME280;39674;59.860;30.672;2022-08-14T14:56:47;101662.88;;;22.73;53.51
53758;BME280;39674;59.860;30.672;2022-08-14T14:59:50;101665.03;;;22.79;54.69
53758;BME280;39674;59.860;30.672;2022-08-14T15:02:47;101677.94;;;22.85;53.61
53758;BME280;39674;59.860;30.672;2022-08-14T15:05:55;101728.66;;;23.11;53.93
53758;BME280;39674;59.860;30.672;2022-08-14T15:08:31;101669.72;;;22.77;54.24
53758;BME280;39674;59.860;30.672;2022-08-14T15:12:20;101781.09;;;23.38;54.49
53758;BME280;39674;59.860;30.672;2022-08-14T15:13:59;101782.00;;;23.48;53.91
53758;BME280;39674;59.860;30.672;2022-08-14T15:16:40;101720.81;;;22.98;54.48
53758;BME280;39674;59.860;30.672;2022-08-14T15:19:57;101736.72;;;23.11;54.04
53758;BME280;39674;59.860;30.672;2022-08-14T15:26:05;101739.78;;;22.87;54.18
53758;BME280;39674;59.860;30.672;2022-08-14T15:28:53;101742.19;;;22.90;54.95
53758;BME280;39674;59.860;30.672;2022-08-14T15:31:23;101705.03;;;22.53;55.73
53758;BME280;39674;59.860;30.672;2022-08-14T15:33:52;101677.47;;;22.39;55.52
53758;BME280;39674;59.860;30.672;2022-08-14T15:36:57;101748.25;;;22.82;56.13
53758;BME280;39674;59.860;30.672;2022-08-14T15:39:31;101643.72;;;22.14;56.25
53758;BME280;39674;59.860;30.672;2022-08-14T15:42:04;101670.63;;;22.14;56.13
53758;BME280;39674;59.860;30.672;2022-08-14T15:44:38;101708.28;;;22.35;56.65
53758;BME280;39674;59.860;30.672;2022-08-14T15:47:08;101717.22;;;22.36;57.40
53758;BME280;39674;59.860;30.672;2022-08-14T15:49:39;101744.38;;;22.44;57.67
53758;BME280;39674;59.860;30.672;2022-08-14T15:52:18;101697.06;;;22.09;56.32
53758;BME280;39674;59.860;30.672;2022-08-14T15:54:56;101736.44;;;22.31;57.23
53758;BME280;39674;59.860;30.672;2022-08-14T15:58:03;101653.44;;;21.84;57.04
53758;BME280;39674;59.860;30.672;2022-08-14T16:00:43;101698.25;;;21.95;57.32
53758;BME280;39674;59.860;30.672;2022-08-14T16:03:35;101782.78;;;22.35;57.54
53758;BME280;39674;59.860;30.672;2022-08-14T16:06:43;101725.00;;;21.96;55.92
53758;BME280;39674;59.860;30.672;2022-08-14T16:09:34;101739.44;;;21.95;57.18
53758;BME280;39674;59.860;30.672;2022-08-14T16:12:48;101772.38;;;22.09;57.52
53758;BME280;39674;59.860;30.672;2022-08-14T16:15:52;101727.31;;;21.69;56.84
53758;BME280;39674;59.860;30.672;2022-08-14T16:20:22;101646.44;;;21.16;56.17
53758;BME280;39674;59.860;30.672;2022-08-14T16:26:36;101768.59;;;21.68;56.48
53758;BME280;39674;59.860;30.672;2022-08-14T16:32:45;101701.00;;;21.17;57.58
53758;BME280;39674;59.860;30.672;2022-08-14T16:35:43;101683.22;;;21.05;57.39
53758;BME280;39674;59.860;30.672;2022-08-14T16:38:14;101722.84;;;21.24;57.82
53758;BME280;39674;59.860;30.672;2022-08-14T16:41:05;101763.50;;;21.42;57.66
53758;BME280;39674;59.860;30.672;2022-08-14T16:44:12;101645.59;;;20.71;57.35
53758;BME280;39674;59.860;30.672;2022-08-14T16:46:49;101632.19;;;20.59;57.50
53758;BME280;39674;59.860;30.672;2022-08-14T16:49:28;101688.56;;;20.82;56.92
53758;BME280;39674;59.860;30.672;2022-08-14T16:52:10;101724.97;;;20.86;56.46
53758;BME280;39674;59.860;30.672;2022-08-14T16:55:07;101693.19;;;20.68;56.77
53758;BME280;39674;59.860;30.672;2022-08-14T16:59:05;101644.13;;;20.44;56.96
53758;BME280;39674;59.860;30.672;2022-08-14T17:02:41;101647.78;;;20.43;56.96
53758;BME280;39674;59.860;30.672;2022-08-14T17:05:23;101662.69;;;20.35;57.11
53758;BME280;39674;59.860;30.672;2022-08-14T17:09:07;101694.19;;;20.67;57.55
53758;BME280;39674;59.860;30.672;2022-08-14T17:12:23;101673.91;;;20.52;57.85
53758;BME280;39674;59.860;30.672;2022-08-14T17:15:10;101615.06;;;20.03;58.35
53758;BME280;39674;59.860;30.672;2022-08-14T17:18:11;101765.22;;;20.97;58.35
53758;BME280;39674;59.860;30.672;2022-08-14T17:22:04;101720.03;;;20.68;58.22
53758;BME280;39674;59.860;30.672;2022-08-14T17:24:48;101756.91;;;20.78;57.82
53758;BME280;39674;59.860;30.672;2022-08-14T17:27:41;101644.34;;;20.07;57.34
53758;BME280;39674;59.860;30.672;2022-08-14T17:31:10;101732.31;;;20.48;56.63
53758;BME280;39674;59.860;30.672;2022-08-14T17:38:31;101770.63;;;20.50;56.38
53758;BME280;39674;59.860;30.672;2022-08-14T17:49:03;101742.75;;;19.93;57.98
53758;BME280;39674;59.860;30.672;2022-08-14T17:52:56;101779.41;;;20.17;58.41
53758;BME280;39674;59.860;30.672;2022-08-14T17:55:17;101668.38;;;19.35;58.76
53758;BME280;39674;59.860;30.672;2022-08-14T18:02:17;101739.66;;;19.62;60.54
53758;BME280;39674;59.860;30.672;2022-08-14T18:09:05;101797.06;;;19.71;62.70
53758;BME280;39674;59.860;30.672;2022-08-14T18:11:48;101782.03;;;19.57;63.19
53758;BME280;39674;59.860;30.672;2022-08-14T18:14:27;101744.03;;;19.26;63.96
53758;BME280;39674;59.860;30.672;2022-08-14T18:16:58;101726.75;;;18.93;64.21
53758;BME280;39674;59.860;30.672;2022-08-14T18:19:37;101766.78;;;19.07;65.96
53758;BME280;39674;59.860;30.672;2022-08-14T18:22:40;101715.38;;;18.64;67.74
53758;BME280;39674;59.860;30.672;2022-08-14T18:25:50;101676.44;;;18.47;66.74
53758;BME280;39674;59.860;30.672;2022-08-14T18:28:35;101674.28;;;18.39;66.56
53758;BME280;39674;59.860;30.672;2022-08-14T18:31:33;101797.19;;;19.06;66.17
53758;BME280;39674;59.860;30.672;2022-08-14T18:34:29;101726.09;;;18.51;66.65
53758;BME280;39674;59.860;30.672;2022-08-14T18:37:18;101804.03;;;18.85;67.17
53758;BME280;39674;59.860;30.672;2022-08-14T18:40:23;101678.78;;;18.12;68.14
53758;BME280;39674;59.860;30.672;2022-08-14T18:43:00;101741.69;;;18.31;68.77
53758;BME280;39674;59.860;30.672;2022-08-14T18:45:36;101656.13;;;17.51;69.34
53758;BME280;39674;59.860;30.672;2022-08-14T18:48:30;101795.41;;;18.54;69.42
53758;BME280;39674;59.860;30.672;2022-08-14T18:52:40;101727.91;;;17.97;70.47
53758;BME280;39674;59.860;30.672;2022-08-14T18:56:04;101672.16;;;17.51;71.07
53758;BME280;39674;59.860;30.672;2022-08-14T18:59:33;101793.47;;;18.30;71.53
53758;BME280;39674;59.860;30.672;2022-08-14T19:07:56;101763.22;;;18.02;72.78
53758;BME280;39674;59.860;30.672;2022-08-14T19:10:59;101799.63;;;18.18;72.16
53758;BME280;39674;59.860;30.672;2022-08-14T19:14:42;101675.34;;;17.43;73.90
53758;BME280;39674;59.860;30.672;2022-08-14T19:18:31;101672.03;;;17.25;73.94
